sensor_id;sensor_type;location;lat;lon;timestamp;temperature;humidity
50586;DHT22;36542;51.700;8.846;2024-03-23T00:53:32;5.80;99.90
50586;DHT22;36542;51.700;8.846;2024-03-23T00:55:59;5.70;99.90
50586;DHT22;36542;51.700;8.846;2024-03-23T00:58:25;5.70;99.90
50586;DHT22;36542;51.700;8.846;2024-03-23T01:00:50;5.70;99.90
50586;DHT22;36542;51.700;8.846;2024-03-23T01:03:16;5.70;99.90
50586;DHT22;36542;51.700;8.846;2024-03-23T01:05:42;5.70;99.90
50586;DHT22;36542;51.700;8.846;2024-03-23T01:08:07;5.70;99.90
50586;DHT22;36542;51.700;8.846;2024-03-23T01:10:33;5.70;99.90
50586;DHT22;36542;51.700;8.846;2024-03-23T01:12:58;5.70;99.90
50586;DHT22;36542;51.700;8.846;2024-03-23T01:15:24;5.70;99.90
50586;DHT22;36542;51.700;8.846;2024-03-23T01:17:50;5.60;99.90
50586;DHT22;36542;51.700;8.846;2024-03-23T01:20:15;5.60;99.90
50586;DHT22;36542;51.700;8.846;2024-03-23T01:22:42;5.60;99.90
50586;DHT22;36542;51.700;8.846;2024-03-23T01:25:07;5.60;99.90
50586;DHT22;36542;51.700;8.846;2024-03-23T01:27:33;5.60;99.90
50586;DHT22;36542;51.700;8.846;2024-03-23T01:29:59;5.60;99.90
50586;DHT22;36542;51.700;8.846;2024-03-23T01:32:25;5.60;99.90
50586;DHT22;36542;51.700;8.846;2024-03-23T01:34:51;5.60;99.90
50586;DHT22;36542;51.700;8.846;2024-03-23T01:37:16;5.60;99.90
50586;DHT22;36542;51.700;8.846;2024-03-23T01:39:42;5.60;99.90
50586;DHT22;36542;51.700;8.846;2024-03-23T01:42:08;5.60;99.90
50586;DHT22;36542;51.700;8.846;2024-03-23T01:44:33;5.50;99.90
50586;DHT22;36542;51.700;8.846;2024-03-23T01:46:59;5.50;99.90
50586;DHT22;36542;51.700;8.846;2024-03-23T01:49:24;5.50;99.90
50586;DHT22;36542;51.700;8.846;2024-03-23T01:51:50;5.50;99.90
50586;DHT22;36542;51.700;8.846;2024-03-23T01:54:16;5.50;99.90
50586;DHT22;36542;51.700;8.846;2024-03-23T01:56:42;5.50;99.90
50586;DHT22;36542;51.700;8.846;2024-03-23T01:59:07;5.50;99.90
50586;DHT22;36542;51.700;8.846;2024-03-23T02:01:35;5.50;99.90
50586;DHT22;36542;51.700;8.846;2024-03-23T02:04:04;5.50;99.90
50586;DHT22;36542;51.700;8.846;2024-03-23T02:06:29;5.50;99.90
50586;DHT22;36542;51.700;8.846;2024-03-23T02:08:55;5.50;99.90
50586;DHT22;36542;51.700;8.846;2024-03-23T02:11:21;5.50;99.90
50586;DHT22;36542;51.700;8.846;2024-03-23T02:13:46;5.40;99.90
50586;DHT22;36542;51.700;8.846;2024-03-23T02:16:12;5.40;99.90
50586;DHT22;36542;51.700;8.846;2024-03-23T02:18:39;5.40;99.90
50586;DHT22;36542;51.700;8.846;2024-03-23T02:21:04;5.50;99.90
50586;DHT22;36542;51.700;8.846;2024-03-23T02:23:30;5.50;99.90
50586;DHT22;36542;51.700;8.846;2024-03-23T02:25:56;5.50;99.90
50586;DHT22;36542;51.700;8.846;2024-03-23T02:28:21;5.50;99.90
50586;DHT22;36542;51.700;8.846;2024-03-23T02:30:51;5.50;99.90
50586;DHT22;36542;51.700;8.846;2024-03-23T02:33:17;5.50;99.90
50586;DHT22;36542;51.700;8.846;2024-03-23T02:35:47;5.50;99.90
50586;DHT22;36542;51.700;8.846;2024-03-23T02:38:12;5.50;99.90
50586;DHT22;36542;51.700;8.846;2024-03-23T02:40:38;5.50;99.90
50586;DHT22;36542;51.700;8.846;2024-03-23T02:43:04;5.50;99.90
50586;DHT22;36542;51.700;8.846;2024-03-23T02:45:30;5.40;99.90
50586;DHT22;36542;51.700;8.846;2024-03-23T02:47:56;5.40;99.90
50586;DHT22;36542;51.700;8.846;2024-03-23T02:50:22;5.40;99.90
50586;DHT22;36542;51.700;8.846;2024-03-23T02:52:48;5.40;99.90
50586;DHT22;36542;51.700;8.846;2024-03-23T02:55:14;5.40;99.90
50586;DHT22;36542;51.700;8.846;2024-03-23T02:57:40;5.40;99.90
50586;DHT22;36542;51.700;8.846;2024-03-23T03:00:07;5.30;99.90
50586;DHT22;36542;51.700;8.846;2024-03-23T03:02:33;5.30;99.90
50586;DHT22;36542;51.700;8.846;2024-03-23T03:04:59;5.30;99.90
50586;DHT22;36542;51.700;8.846;2024-03-23T03:07:24;5.40;99.90
50586;DHT22;36542;51.700;8.846;2024-03-23T03:09:50;5.30;99.90
50586;DHT22;36542;51.700;8.846;2024-03-23T03:12:15;5.20;99.90
50586;DHT22;36542;51.700;8.846;2024-03-23T03:14:41;5.20;99.90
50586;DHT22;36542;51.700;8.846;2024-03-23T03:17:07;5.10;99.90
50586;DHT22;36542;51.700;8.846;2024-03-23T03:19:32;5.10;99.90
50586;DHT22;36542;51.700;8.846;2024-03-23T03:21:58;4.90;99.90
50586;DHT22;36542;51.700;8.846;2024-03-23T03:24:24;4.80;99.90
50586;DHT22;36542;51.700;8.846;2024-03-23T03:26:49;4.80;99.90
50586;DHT22;36542;51.700;8.846;2024-03-23T03:29:16;4.80;99.90
50586;DHT22;36542;51.700;8.846;2024-03-23T03:31:42;4.80;99.90
50586;DHT22;36542;51.700;8.846;2024-03-23T03:34:08;4.70;99.90
50586;DHT22;36542;51.700;8.846;2024-03-23T03:36:33;4.70;99.90
50586;DHT22;36542;51.700;8.846;2024-03-23T03:38:59;4.70;99.90
50586;DHT22;36542;51.700;8.846;2024-03-23T03:41:25;4.70;99.90
50586;DHT22;36542;51.700;8.846;2024-03-23T03:43:50;4.80;99.90
50586;DHT22;36542;51.700;8.846;2024-03-23T03:46:16;4.70;99.90
50586;DHT22;36542;51.700;8.846;2024-03-23T03:48:42;4.70;99.90
50586;DHT22;36542;51.700;8.846;2024-03-23T03:51:10;4.70;99.90
50586;DHT22;36542;51.700;8.846;2024-03-23T03:53:35;4.70;99.90
50586;DHT22;36542;51.700;8.846;2024-03-23T03:56:01;4.70;99.90
50586;DHT22;36542;51.700;8.846;2024-03-23T03:58:27;4.70;99.90
50586;DHT22;36542;51.700;8.846;2024-03-23T04:00:53;4.70;99.90
50586;DHT22;36542;51.700;8.846;2024-03-23T04:03:19;4.80;99.90
50586;DHT22;36542;51.700;8.846;2024-03-23T04:05:51;4.70;99.90
50586;DHT22;36542;51.700;8.846;2024-03-23T04:08:16;4.80;99.90
50586;DHT22;36542;51.700;8.846;2024-03-23T04:10:42;4.70;99.90
50586;DHT22;36542;51.700;8.846;2024-03-23T04:13:08;4.70;99.90
50586;DHT22;36542;51.700;8.846;2024-03-23T04:15:33;4.70;99.90
50586;DHT22;36542;51.700;8.846;2024-03-23T04:17:59;4.50;99.90
50586;DHT22;36542;51.700;8.846;2024-03-23T04:20:25;4.40;99.90
50586;DHT22;36542;51.700;8.846;2024-03-23T04:22:51;4.40;99.90
50586;DHT22;36542;51.700;8.846;2024-03-23T04:25:17;4.50;99.90
50586;DHT22;36542;51.700;8.846;2024-03-23T04:27:45;4.50;99.90
50586;DHT22;36542;51.700;8.846;2024-03-23T04:30:11;4.40;99.90
50586;DHT22;36542;51.700;8.846;2024-03-23T04:32:40;4.40;99.90
50586;DHT22;36542;51.700;8.846;2024-03-23T04:35:06;4.40;99.90
50586;DHT22;36542;51.700;8.846;2024-03-23T04:37:32;4.30;99.90
50586;DHT22;36542;51.700;8.846;2024-03-23T04:40:00;4.30;99.90
50586;DHT22;36542;51.700;8.846;2024-03-23T04:42:27;4.30;99.90
50586;DHT22;36542;51.700;8.846;2024-03-23T04:44:53;4.30;99.90
50586;DHT22;36542;51.700;8.846;2024-03-23T04:47:18;4.30;99.90
50586;DHT22;36542;51.700;8.846;2024-03-23T04:49:44;4.30;99.90
50586;DHT22;36542;51.700;8.846;2024-03-23T04:52:10;4.30;99.90
50586;DHT22;36542;51.700;8.846;2024-03-23T04:54:35;4.30;99.90
50586;DHT22;36542;51.700;8.846;2024-03-23T04:57:01;4.30;99.90
50586;DHT22;36542;51.700;8.846;2024-03-23T04:59:26;4.20;99.90
50586;DHT22;36542;51.700;8.846;2024-03-23T05:01:52;4.20;99.90
50586;DHT22;36542;51.700;8.846;2024-03-23T05:04:18;4.10;99.90
50586;DHT22;36542;51.700;8.846;2024-03-23T05:06:43;4.10;99.90
50586;DHT22;36542;51.700;8.846;2024-03-23T05:09:09;4.10;99.90
50586;DHT22;36542;51.700;8.846;2024-03-23T05:11:41;4.10;99.90
50586;DHT22;36542;51.700;8.846;2024-03-23T05:14:12;4.10;99.90
50586;DHT22;36542;51.700;8.846;2024-03-23T05:16:38;4.10;99.90
50586;DHT22;36542;51.700;8.846;2024-03-23T05:19:03;4.10;99.90
50586;DHT22;36542;51.700;8.846;2024-03-23T05:21:29;4.10;99.90
50586;DHT22;36542;51.700;8.846;2024-03-23T05:23:57;4.10;99.90
50586;DHT22;36542;51.700;8.846;2024-03-23T05:26:23;4.20;99.90
50586;DHT22;36542;51.700;8.846;2024-03-23T05:28:49;4.20;99.90
50586;DHT22;36542;51.700;8.846;2024-03-23T05:31:27;4.10;99.90
50586;DHT22;36542;51.700;8.846;2024-03-23T05:33:53;4.10;99.90
50586;DHT22;36542;51.700;8.846;2024-03-23T05:36:20;4.00;99.90
50586;DHT22;36542;51.700;8.846;2024-03-23T05:38:45;4.10;99.90
50586;DHT22;36542;51.700;8.846;2024-03-23T05:41:11;4.10;99.90
50586;DHT22;36542;51.700;8.846;2024-03-23T05:43:37;4.10;99.90
50586;DHT22;36542;51.700;8.846;2024-03-23T05:46:03;4.10;99.90
50586;DHT22;36542;51.700;8.846;2024-03-23T05:48:30;4.10;99.90
50586;DHT22;36542;51.700;8.846;2024-03-23T05:50:56;4.20;99.90
50586;DHT22;36542;51.700;8.846;2024-03-23T05:53:21;4.20;99.90
50586;DHT22;36542;51.700;8.846;2024-03-23T05:55:47;4.20;99.90
50586;DHT22;36542;51.700;8.846;2024-03-23T05:58:16;4.20;99.90
50586;DHT22;36542;51.700;8.846;2024-03-23T06:00:42;4.20;99.90
50586;DHT22;36542;51.700;8.846;2024-03-23T06:03:09;4.20;99.90
50586;DHT22;36542;51.700;8.846;2024-03-23T06:05:35;4.20;99.90
50586;DHT22;36542;51.700;8.846;2024-03-23T06:08:01;4.30;99.90
50586;DHT22;36542;51.700;8.846;2024-03-23T06:10:28;4.30;99.90
50586;DHT22;36542;51.700;8.846;2024-03-23T06:12:53;4.30;99.90
50586;DHT22;36542;51.700;8.846;2024-03-23T06:15:19;4.30;99.90
50586;DHT22;36542;51.700;8.846;2024-03-23T06:17:45;4.30;99.90
50586;DHT22;36542;51.700;8.846;2024-03-23T06:20:12;4.30;99.90
50586;DHT22;36542;51.700;8.846;2024-03-23T06:22:38;4.30;99.90
50586;DHT22;36542;51.700;8.846;2024-03-23T06:25:09;4.30;99.90
50586;DHT22;36542;51.700;8.846;2024-03-23T06:27:35;4.40;99.90
50586;DHT22;36542;51.700;8.846;2024-03-23T06:30:00;4.40;99.90
50586;DHT22;36542;51.700;8.846;2024-03-23T06:32:27;4.40;99.90
50586;DHT22;36542;51.700;8.846;2024-03-23T06:35:03;4.50;99.90
